MMTOMMZH

Guest
Details From MMTO - Toluca Lic. Adolfo Lopez Mateos
To MMZH - IXTAPA ZIHUATANEJO INTL
Flight Number -
Tags generated
Created
Modified
Stats Distance 158 nm / 293 km
Max Altitude 14,100 ft / 4,298 m
Waypoints 3
Social Downloads 0
Likes 0
Share

Download

Looking for another format? Having issues loading an existing format? Contact us
Advertisement - Login to hide

Notes

Basic altitude profile: - Ascent Rate: 300ft/min - Ascent Speed: 90kts - Cruise Altitude: 14000ft - Cruise Speed: 140kts - Descent Rate: 500ft/min - Descent Speed: 140kts Options: - Use NATs: yes - Use PACOTS: yes - Use low airways: yes - Use high airways: no

Route

MMTO NAMTA MMZH

ID Type Via Altitude (ft/m) Position (lat/lon) Dist (leg/tot) Name
O MMTO APT - 0 / 0 19.33707 / -99.56601 - / 0 nm Toluca Lic. Adolfo Lopez Mateos
NAMTA FIX - 14,100 / 4,298 18.66750 / -100.94139 87 / 87 nm
O MMZH APT - 0 / 0 17.60157 / -101.46053 70 / 158 nm IXTAPA ZIHUATANEJO INTL

Altitude Profile

Advertisement - Login to hide

MMTO

Details ICAO MMTO (TLC)
Name Toluca Lic. Adolfo Lopez Mateos
Region Mexico
Timezone America/Mexico_City (UTC-5.0)
Stats Elevation 8,464 ft / 2,580 m (AMSL)
Location 19.336800° -99.565900°
Runways 1
Magnetic Variation 4.463° E

METAR

MMTO 160247Z 34003KT 7SM SCT015 BKN070 13/09 A3038 RMK SLP085 52018 957 8/430 HZY

Decode

TAF

TAF MMTO 152233Z 1600/1706 16006G16KT 4SM RA BKN015CB TX26/1620Z TN10/1612Z TEMPO 1600/1604 3SM TSRA BKN010 OVC015CB FM160500 00000KT 4SM BR BKN015 BKN080 FM161000 00000KT 3SM BR BKN010 BKN080 BKN220 TEMPO 1610/1614 2SM BR HZ BKN006 OVC010 FM161500 20004KT 4SM HZ SCT015 BKN080 FM161900 30006KT 5SM HZ BKN080 BECMG 1620/1621 SCT015CB TEMPO 1622/1702 4SM TSRA FM170200 24004KT 4SM -RA BKN015 OVC080

Decode

Departure Runways

ID Width Length Bearing (true/mag) Surface Threshold Overrun Markings Lighting
15 148 ft / 45 m 13,793 ft / 4,204 m 156.93° / 152.46° ASPHALT 0 ft / 0 m 194 ft / 59 m PREC-APP CENTERLINE EDGE THRESHOLD SSALR TDZ
33 148 ft / 45 m 13,793 ft / 4,204 m 336.93° / 332.47° ASPHALT 741 ft / 226 m 0 ft / 0 m PREC-APP CENTERLINE EDGE THRESHOLD

MMZH

Details ICAO MMZH (ZIH)
Name IXTAPA ZIHUATANEJO INTL
Region Mexico
Timezone America/Mexico_City (UTC-5.0)
Stats Elevation 24 ft / 7 m (AMSL)
Location 17.601600° -101.461000°
Runways 1
Magnetic Variation 5.240° E

METAR

Not found

TAF

TAF MMZH 151631Z 1518/1618 22010KT 6SM HZ SCT020 SCT250 BECMG 1521/1522 SCT020CB TEMPO 1522/1602 6SM -TSRA BKN020CB BKN250 BECMG 1603/1604 32005KT SCT020 BKN250 FM161700 20008KT P6SM SCT015 BKN250

Decode

Destination Runways

ID Width Length Bearing (true/mag) Surface Threshold Overrun Markings Lighting
08 197 ft / 60 m 8,207 ft / 2,502 m 91.56° / 86.32° ASPHALT 0 ft / 0 m 0 ft / 0 m PREC-APP EDGE THRESHOLD
26 197 ft / 60 m 8,207 ft / 2,502 m 271.57° / 266.33° ASPHALT 0 ft / 0 m 0 ft / 0 m PREC-APP EDGE THRESHOLD

Popular Alternatives